Time;durP1;ratioP1;P1;durP2;ratioP2;P2;SDS_P1;SDS_P2;PMS_P1;PMS_P2;Temp;Humidity;BMP_temperature;BMP_pressure;BME280_temperature;BME280_humidity;BME280_pressure;Samples;Min_cycle;Max_cycle;Signal;HPM_P1;HPM_P2
2024/04/16 00:01:38;;;;;;;11.73;3.65;;;7.20;80.30;;;;;;5449574;26;19995;-87
2024/04/16 00:04:04;;;;;;;11.25;3.42;;;7.30;80.00;;;;;;5447511;26;20002;-87
2024/04/16 00:06:30;;;;;;;10.98;2.78;;;7.30;80.10;;;;;;5402530;26;20568;-86
2024/04/16 00:08:56;;;;;;;8.15;2.50;;;7.40;79.80;;;;;;5436843;26;20341;-83
2024/04/16 00:11:22;;;;;;;10.07;2.20;;;7.40;79.60;;;;;;5439932;26;20037;-85
2024/04/16 00:13:47;;;;;;;12.57;2.70;;;7.50;79.60;;;;;;5441137;26;19991;-83
2024/04/16 00:16:13;;;;;;;11.68;2.75;;;7.50;79.50;;;;;;5438579;26;20026;-85
2024/04/16 00:18:39;;;;;;;9.77;2.60;;;7.60;79.80;;;;;;5446640;26;19995;-84
2024/04/16 00:21:04;;;;;;;9.30;2.47;;;7.60;80.10;;;;;;5436568;26;19995;-87
2024/04/16 00:23:30;;;;;;;13.88;3.28;;;7.60;80.70;;;;;;5404041;26;19996;-82
2024/04/16 00:25:56;;;;;;;8.88;2.08;;;7.60;81.10;;;;;;5432297;26;19995;-83
2024/04/16 00:28:21;;;;;;;8.43;2.53;;;7.50;81.70;;;;;;5440555;26;20439;-86
2024/04/16 00:30:47;;;;;;;11.38;2.40;;;7.50;81.90;;;;;;5432056;26;19995;-84
2024/04/16 00:33:13;;;;;;;10.95;2.65;;;7.40;82.10;;;;;;5402322;26;20324;-84
2024/04/16 00:35:42;;;;;;;7.95;2.33;;;7.50;82.30;;;;;;5409982;26;19999;-86
2024/04/16 00:38:09;;;;;;;10.38;2.88;;;7.50;82.60;;;;;;5438895;26;20013;-82
2024/04/16 00:40:34;;;;;;;12.68;2.75;;;7.60;82.30;;;;;;5437377;26;20104;-85
2024/04/16 00:43:00;;;;;;;10.60;2.95;;;7.60;82.50;;;;;;5439082;26;20010;-85
2024/04/16 00:45:27;;;;;;;7.88;2.55;;;7.60;83.10;;;;;;5440763;26;19994;-87
2024/04/16 00:47:53;;;;;;;13.05;2.97;;;7.60;82.70;;;;;;5435134;26;19999;-83
2024/04/16 00:50:20;;;;;;;12.13;3.90;;;7.60;82.70;;;;;;5450273;26;20389;-87
2024/04/16 00:52:46;;;;;;;12.20;2.72;;;7.60;82.90;;;;;;5438590;26;20445;-83
2024/04/16 00:55:12;;;;;;;10.50;2.75;;;7.60;82.90;;;;;;5411498;26;19995;-83
2024/04/16 00:57:38;;;;;;;12.32;2.67;;;7.70;82.90;;;;;;5441171;26;20416;-83
2024/04/16 01:00:05;;;;;;;10.77;3.30;;;7.60;82.90;;;;;;5421149;26;20010;-82
2024/04/16 01:02:30;;;;;;;8.93;2.45;;;7.60;82.70;;;;;;5439514;26;20071;-82
2024/04/16 01:04:56;;;;;;;13.35;2.88;;;7.60;82.60;;;;;;5425385;26;20011;-82
2024/04/16 01:07:24;;;;;;;9.15;2.58;;;7.70;82.40;;;;;;5433113;26;20005;-84
2024/04/16 01:09:49;;;;;;;11.32;2.60;;;7.70;82.40;;;;;;5420653;26;20129;-83
2024/04/16 01:12:15;;;;;;;13.50;4.07;;;7.80;81.80;;;;;;5438256;26;20002;-82
2024/04/16 01:14:41;;;;;;;15.55;3.25;;;7.70;81.90;;;;;;5412396;26;19999;-88
2024/04/16 01:17:07;;;;;;;14.13;3.05;;;7.70;81.70;;;;;;5418838;26;20075;-88
2024/04/16 01:19:33;;;;;;;11.07;2.20;;;7.80;81.30;;;;;;5415431;26;20495;-83
2024/04/16 01:21:58;;;;;;;10.27;2.95;;;7.80;81.30;;;;;;5438927;26;20003;-83
2024/04/16 01:24:24;;;;;;;12.73;2.88;;;7.90;81.20;;;;;;5420537;26;19995;-85
2024/04/16 01:26:50;;;;;;;9.77;2.85;;;7.90;81.20;;;;;;5419016;26;20446;-83
2024/04/16 01:29:15;;;;;;;12.60;2.78;;;8.00;80.60;;;;;;5425365;26;20013;-86
2024/04/16 01:31:41;;;;;;;9.88;2.15;;;8.00;80.90;;;;;;5434628;26;20006;-84
2024/04/16 01:34:07;;;;;;;15.18;3.03;;;8.00;81.00;;;;;;5402263;26;20453;-82
2024/04/16 01:36:32;;;;;;;11.98;2.22;;;8.00;81.20;;;;;;5421405;26;20003;-85
2024/04/16 01:38:58;;;;;;;8.77;3.05;;;8.00;81.50;;;;;;5428532;26;20061;-83
2024/04/16 01:41:24;;;;;;;9.63;2.50;;;8.00;81.60;;;;;;5424616;26;19999;-83
2024/04/16 01:43:49;;;;;;;10.25;2.88;;;7.90;81.90;;;;;;5435824;26;20455;-82
2024/04/16 01:46:15;;;;;;;9.23;3.13;;;7.90;82.00;;;;;;5416370;26;20456;-85
2024/04/16 01:48:41;;;;;;;8.30;2.35;;;7.90;82.20;;;;;;5427297;26;19991;-85
2024/04/16 01:51:06;;;;;;;10.68;2.97;;;7.90;82.90;;;;;;5431865;26;19999;-85
2024/04/16 01:53:32;;;;;;;9.35;3.03;;;7.90;83.20;;;;;;5408992;26;20011;-85
2024/04/16 01:56:00;;;;;;;12.60;3.13;;;7.90;82.80;;;;;;5430259;26;20426;-83
2024/04/16 01:58:26;;;;;;;9.10;2.78;;;7.90;83.60;;;;;;5419151;26;19998;-86
2024/04/16 02:00:58;;;;;;;13.95;2.83;;;7.80;83.90;;;;;;5416266;26;19998;-85
2024/04/16 02:03:24;;;;;;;14.13;3.90;;;7.80;84.00;;;;;;5436336;26;20534;-87
2024/04/16 02:05:50;;;;;;;13.57;3.60;;;7.70;84.00;;;;;;5436824;26;20006;-85
2024/04/16 02:08:15;;;;;;;8.40;3.10;;;7.70;84.60;;;;;;5424102;26;20034;-83
2024/04/16 02:10:54;;;;;;;11.27;4.00;;;7.70;85.40;;;;;;5434911;26;20002;-84
2024/04/16 02:13:20;;;;;;;10.45;4.22;;;7.60;85.70;;;;;;5415125;26;20101;-86
2024/04/16 02:15:45;;;;;;;9.73;3.17;;;7.60;85.50;;;;;;5426620;26;20570;-87
2024/04/16 02:18:11;;;;;;;11.07;3.33;;;7.60;85.30;;;;;;5436800;26;20566;-85
2024/04/16 02:20:37;;;;;;;12.35;3.38;;;7.60;85.30;;;;;;5418823;26;20832;-84
2024/04/16 02:23:02;;;;;;;10.38;3.40;;;7.60;85.40;;;;;;5434610;26;20251;-86
2024/04/16 02:25:28;;;;;;;12.48;3.13;;;7.60;85.20;;;;;;5436690;26;19991;-83
2024/04/16 02:27:54;;;;;;;10.57;3.08;;;7.70;85.10;;;;;;5416516;26;20031;-85
2024/04/16 02:30:19;;;;;;;11.68;3.20;;;7.70;85.30;;;;;;5433738;26;20033;-83
2024/04/16 02:32:45;;;;;;;11.65;3.22;;;7.60;85.90;;;;;;5422192;26;19994;-84
2024/04/16 02:35:10;;;;;;;10.27;2.30;;;7.60;86.80;;;;;;5399617;26;20014;-84
2024/04/16 02:37:37;;;;;;;15.98;3.63;;;7.60;87.60;;;;;;5412731;26;19994;-82
2024/04/16 02:40:03;;;;;;;13.15;3.45;;;7.40;88.20;;;;;;5436173;26;20006;-87
2024/04/16 02:42:29;;;;;;;8.60;3.45;;;7.40;88.80;;;;;;5431415;26;20054;-83
2024/04/16 02:44:54;;;;;;;16.48;5.38;;;7.40;89.10;;;;;;5440097;26;20412;-85
2024/04/16 02:47:20;;;;;;;13.10;6.68;;;7.40;89.10;;;;;;5427242;26;20010;-87
2024/04/16 02:49:45;;;;;;;13.27;8.10;;;7.40;89.00;;;;;;5437382;26;20439;-82
2024/04/16 02:52:11;;;;;;;15.50;6.50;;;7.30;88.80;;;;;;5432414;26;20694;-83
2024/04/16 02:54:37;;;;;;;20.08;9.00;;;7.40;89.10;;;;;;5429418;26;19998;-84
2024/04/16 02:57:02;;;;;;;18.13;8.23;;;7.40;89.00;;;;;;5434397;26;20032;-84
2024/04/16 02:59:28;;;;;;;15.77;5.35;;;7.30;89.10;;;;;;5392775;26;20288;-86
2024/04/16 03:01:54;;;;;;;11.98;4.88;;;7.40;89.20;;;;;;5405695;26;20437;-85
2024/04/16 03:04:19;;;;;;;14.13;5.57;;;7.40;88.70;;;;;;5405673;26;20374;-85
2024/04/16 03:06:45;;;;;;;12.73;4.65;;;7.40;88.60;;;;;;5445007;26;19994;-89
2024/04/16 03:09:10;;;;;;;11.30;4.43;;;7.50;88.40;;;;;;5442439;26;20008;-86
2024/04/16 03:11:36;;;;;;;13.68;3.90;;;7.50;88.40;;;;;;5406935;26;20015;-85
2024/04/16 03:14:02;;;;;;;13.70;4.78;;;7.50;88.30;;;;;;5437207;26;20007;-86
2024/04/16 03:16:27;;;;;;;16.02;3.95;;;7.50;88.20;;;;;;5433175;26;20381;-85
2024/04/16 03:18:53;;;;;;;13.35;4.13;;;7.40;88.20;;;;;;5429369;26;20402;-85
2024/04/16 03:21:19;;;;;;;14.20;4.65;;;7.40;88.30;;;;;;5416320;26;20347;-84
2024/04/16 03:23:44;;;;;;;16.63;4.20;;;7.50;88.20;;;;;;5408398;26;20456;-85
2024/04/16 03:26:10;;;;;;;13.55;4.45;;;7.40;88.10;;;;;;5411193;26;20403;-83
2024/04/16 03:28:35;;;;;;;14.10;4.97;;;7.40;88.20;;;;;;5418421;26;19998;-84
2024/04/16 03:31:01;;;;;;;9.88;3.42;;;7.40;88.40;;;;;;5423707;26;20507;-83
2024/04/16 03:33:27;;;;;;;12.77;4.13;;;7.50;88.30;;;;;;5430560;26;20395;-84
2024/04/16 03:35:54;;;;;;;9.30;2.80;;;7.50;88.60;;;;;;5429846;26;20064;-85
2024/04/16 03:38:20;;;;;;;14.40;3.47;;;7.50;88.60;;;;;;5420409;26;19991;-84
2024/04/16 03:41:00;;;;;;;11.55;2.85;;;7.60;88.80;;;;;;5425206;26;20406;-84
2024/04/16 03:43:27;;;;;;;13.00;3.03;;;7.60;88.90;;;;;;5406814;26;20091;-84
2024/04/16 03:45:53;;;;;;;9.77;3.42;;;7.60;89.10;;;;;;5432747;26;20502;-84
2024/04/16 03:48:21;;;;;;;10.73;2.60;;;7.60;89.30;;;;;;5427400;26;20030;-84
2024/04/16 03:50:46;;;;;;;11.10;3.05;;;7.60;89.30;;;;;;5426196;26;19994;-85
2024/04/16 03:53:12;;;;;;;10.82;2.72;;;7.60;89.20;;;;;;5439905;26;20006;-83
2024/04/16 03:55:38;;;;;;;10.43;2.35;;;7.60;89.20;;;;;;5430348;26;20343;-84
2024/04/16 03:58:03;;;;;;;9.82;2.47;;;7.70;89.20;;;;;;5412261;26;20440;-84
2024/04/16 04:03:16;;;;;;;10.77;2.70;;;7.70;89.30;;;;;;5428153;26;20010;-88
2024/04/16 04:05:43;;;;;;;12.70;2.78;;;7.70;89.30;;;;;;5428532;26;20014;-86
2024/04/16 04:08:09;;;;;;;11.63;2.50;;;7.80;89.20;;;;;;5426196;26;19996;-86
2024/04/16 04:10:35;;;;;;;9.63;2.33;;;7.80;89.30;;;;;;5437646;26;19999;-84
2024/04/16 04:13:00;;;;;;;8.98;2.22;;;7.80;89.40;;;;;;5433290;26;20457;-84
2024/04/16 04:15:26;;;;;;;8.23;2.28;;;7.70;89.30;;;;;;5441598;26;20038;-85
2024/04/16 04:17:52;;;;;;;10.68;2.15;;;7.80;89.20;;;;;;5404356;26;20149;-85
2024/04/16 04:20:17;;;;;;;12.05;2.17;;;7.80;89.30;;;;;;5429851;26;20276;-88
2024/04/16 04:22:43;;;;;;;8.73;2.10;;;7.80;89.10;;;;;;5411350;26;20556;-85
2024/04/16 04:25:09;;;;;;;9.07;2.72;;;7.80;89.20;;;;;;5432968;26;20514;-83
2024/04/16 04:27:34;;;;;;;7.13;1.92;;;7.90;89.20;;;;;;5432901;26;19999;-84
2024/04/16 04:30:00;;;;;;;7.63;1.75;;;7.80;89.10;;;;;;5416917;26;20009;-85
2024/04/16 04:32:26;;;;;;;8.52;1.90;;;7.80;88.80;;;;;;5421095;26;21022;-83
2024/04/16 04:34:52;;;;;;;8.02;2.03;;;7.90;89.00;;;;;;5400069;26;20066;-84
2024/04/16 04:37:18;;;;;;;9.65;2.17;;;7.80;89.00;;;;;;5431960;26;20075;-82
2024/04/16 04:39:43;;;;;;;6.93;2.05;;;7.80;89.20;;;;;;5418669;26;20457;-81
2024/04/16 04:42:09;;;;;;;11.77;2.53;;;7.90;89.30;;;;;;5433086;26;19998;-83
2024/04/16 04:44:35;;;;;;;7.72;2.35;;;7.90;89.40;;;;;;5432412;26;19999;-83
2024/04/16 04:47:01;;;;;;;8.85;2.15;;;7.80;89.60;;;;;;5404896;26;20076;-82
2024/04/16 04:49:27;;;;;;;8.73;2.28;;;7.80;89.70;;;;;;5434597;26;20109;-84
2024/04/16 04:51:53;;;;;;;10.57;3.38;;;7.80;90.00;;;;;;5442587;26;20014;-83
2024/04/16 04:54:19;;;;;;;8.73;2.15;;;7.80;90.30;;;;;;5409362;26;20003;-86
2024/04/16 04:56:45;;;;;;;10.10;2.33;;;7.80;90.40;;;;;;5405045;26;20010;-85
2024/04/16 04:59:11;;;;;;;7.05;2.45;;;7.80;90.50;;;;;;5428297;26;20487;-84
2024/04/16 05:01:36;;;;;;;13.23;3.38;;;7.80;90.50;;;;;;5389001;26;19999;-89
2024/04/16 05:04:02;;;;;;;14.13;3.13;;;7.80;90.80;;;;;;5396155;26;20018;-89
2024/04/16 05:06:28;;;;;;;11.38;2.40;;;7.80;90.90;;;;;;5433860;26;20013;-84
2024/04/16 05:08:53;;;;;;;10.00;2.53;;;7.80;90.90;;;;;;5429954;26;20054;-88
2024/04/16 05:11:19;;;;;;;10.38;2.45;;;7.80;90.80;;;;;;5422794;26;19994;-86
2024/04/16 05:13:45;;;;;;;12.90;2.72;;;7.80;90.70;;;;;;5426054;26;20070;-83
2024/04/16 05:16:10;;;;;;;9.52;2.40;;;7.80;90.80;;;;;;5431040;26;19995;-84
2024/04/16 05:18:36;;;;;;;10.75;3.55;;;7.80;90.60;;;;;;5433090;26;19995;-83
2024/04/16 05:21:02;;;;;;;10.05;2.63;;;7.90;90.70;;;;;;5433229;26;19999;-83
2024/04/16 05:23:27;;;;;;;10.95;2.67;;;7.90;90.60;;;;;;5428952;26;19995;-85
2024/04/16 05:26:02;;;;;;;11.05;3.47;;;7.90;90.60;;;;;;5429053;26;19994;-84
2024/04/16 05:28:35;;;;;;;12.98;4.72;;;7.90;90.60;;;;;;5429016;26;19995;-85
2024/04/16 05:31:00;;;;;;;17.27;5.03;;;8.00;90.40;;;;;;5425701;26;20050;-81
2024/04/16 05:33:27;;;;;;;11.57;4.00;;;8.00;90.10;;;;;;5430204;26;19995;-82
2024/04/16 05:35:53;;;;;;;10.05;2.63;;;8.00;89.80;;;;;;5398556;26;19999;-84
2024/04/16 05:38:19;;;;;;;8.00;2.30;;;8.00;89.70;;;;;;5440867;26;19998;-84
2024/04/16 05:40:45;;;;;;;14.63;4.03;;;8.10;89.30;;;;;;5433924;26;19991;-83
2024/04/16 05:43:11;;;;;;;11.60;3.10;;;8.10;88.70;;;;;;5430502;26;20427;-82
2024/04/16 05:45:36;;;;;;;7.55;2.30;;;8.20;88.50;;;;;;5424119;26;20529;-81
2024/04/16 05:48:02;;;;;;;10.15;2.70;;;8.20;88.50;;;;;;5426356;26;20483;-81
2024/04/16 05:50:29;;;;;;;9.85;2.88;;;8.20;88.00;;;;;;5434807;26;20036;-82
2024/04/16 05:52:55;;;;;;;9.18;2.30;;;8.30;87.90;;;;;;5425642;26;20042;-82
2024/04/16 05:55:21;;;;;;;11.65;2.97;;;8.30;87.80;;;;;;5439891;26;20064;-82
2024/04/16 05:57:47;;;;;;;9.60;2.72;;;8.40;87.80;;;;;;5399580;26;20298;-87
2024/04/16 06:00:13;;;;;;;10.55;2.75;;;8.40;87.50;;;;;;5428672;26;20449;-82
2024/04/16 06:02:39;;;;;;;10.00;2.67;;;8.40;87.30;;;;;;5438551;26;20006;-83
2024/04/16 06:05:05;;;;;;;11.20;3.10;;;8.50;87.20;;;;;;5426874;26;20011;-83
2024/04/16 06:07:30;;;;;;;10.02;2.70;;;8.50;86.80;;;;;;5419475;26;20182;-82
2024/04/16 06:09:56;;;;;;;9.10;2.40;;;8.50;86.80;;;;;;5420343;26;20007;-82
2024/04/16 06:12:22;;;;;;;8.90;2.42;;;8.50;86.70;;;;;;5401813;26;20447;-83
2024/04/16 06:14:48;;;;;;;9.27;2.75;;;8.60;86.70;;;;;;5433585;26;20006;-85
2024/04/16 06:17:13;;;;;;;10.07;3.03;;;8.60;86.70;;;;;;5396060;26;20612;-83
2024/04/16 06:19:41;;;;;;;12.65;2.72;;;8.60;86.60;;;;;;5423925;26;19995;-84
2024/04/16 06:22:07;;;;;;;15.32;3.38;;;8.60;86.70;;;;;;5428560;26;20006;-82
2024/04/16 06:24:32;;;;;;;10.85;2.58;;;8.60;86.70;;;;;;5406528;26;20002;-82
2024/04/16 06:26:58;;;;;;;7.22;2.67;;;8.60;86.70;;;;;;5405465;26;20044;-80
2024/04/16 06:29:24;;;;;;;11.85;2.42;;;8.60;86.80;;;;;;5411511;26;20011;-82
2024/04/16 06:31:49;;;;;;;12.63;3.30;;;8.60;86.60;;;;;;5423165;26;20010;-81
2024/04/16 06:34:15;;;;;;;12.40;3.83;;;8.60;86.80;;;;;;5408510;26;20014;-82
2024/04/16 06:36:40;;;;;;;11.00;2.70;;;8.60;86.70;;;;;;5428346;26;20330;-80
2024/04/16 06:39:06;;;;;;;9.98;2.70;;;8.70;86.50;;;;;;5428765;26;20007;-83
2024/04/16 06:41:32;;;;;;;10.02;2.50;;;8.70;86.40;;;;;;5429764;26;20113;-83
2024/04/16 06:43:57;;;;;;;9.63;2.30;;;8.80;86.30;;;;;;5429199;26;20015;-81
2024/04/16 06:46:23;;;;;;;14.57;3.08;;;8.80;86.40;;;;;;5430057;26;20331;-83
2024/04/16 06:48:51;;;;;;;11.00;2.60;;;8.80;86.30;;;;;;5407156;26;20380;-81
2024/04/16 06:51:17;;;;;;;8.57;2.28;;;8.80;86.20;;;;;;5392955;26;20015;-81
2024/04/16 06:53:43;;;;;;;10.88;3.00;;;8.80;86.10;;;;;;5415126;26;20121;-82
2024/04/16 06:56:08;;;;;;;10.35;2.70;;;8.90;86.10;;;;;;5411712;26;20737;-82
2024/04/16 06:58:34;;;;;;;9.52;2.88;;;9.00;86.10;;;;;;5421187;26;20034;-83
2024/04/16 07:01:00;;;;;;;9.20;2.20;;;9.10;86.00;;;;;;5420906;26;20022;-83
2024/04/16 07:03:27;;;;;;;8.55;2.85;;;9.10;85.80;;;;;;5421231;26;21035;-81
2024/04/16 07:05:53;;;;;;;10.30;2.65;;;9.10;85.90;;;;;;5421841;26;20068;-81
2024/04/16 07:08:19;;;;;;;8.73;2.50;;;9.10;85.80;;;;;;5402130;26;19995;-81
2024/04/16 07:10:46;;;;;;;11.85;2.55;;;9.20;85.90;;;;;;5413729;26;20776;-80
2024/04/16 07:13:12;;;;;;;8.80;2.28;;;9.20;85.80;;;;;;5397677;26;20009;-80
2024/04/16 07:15:39;;;;;;;11.15;3.10;;;9.20;85.90;;;;;;5396318;26;20434;-81
2024/04/16 07:18:04;;;;;;;13.32;3.42;;;9.20;85.60;;;;;;5424932;26;19999;-81
2024/04/16 07:20:30;;;;;;;12.43;3.17;;;9.10;85.60;;;;;;5433082;26;20000;-81
2024/04/16 07:22:56;;;;;;;10.23;2.67;;;9.10;85.80;;;;;;5423757;26;20004;-81
2024/04/16 07:25:21;;;;;;;9.30;2.88;;;9.10;85.30;;;;;;5421138;26;20010;-82
2024/04/16 07:27:47;;;;;;;10.32;2.47;;;9.10;85.20;;;;;;5420697;26;20577;-83
2024/04/16 07:30:18;;;;;;;8.57;2.47;;;9.10;84.70;;;;;;5424902;26;20014;-82
2024/04/16 07:32:44;;;;;;;7.90;2.10;;;9.10;83.80;;;;;;5423967;26;20006;-85
2024/04/16 07:35:10;;;;;;;11.20;2.42;;;9.10;83.60;;;;;;5439903;26;19995;-84
2024/04/16 07:37:36;;;;;;;8.70;2.42;;;9.20;82.90;;;;;;5397781;26;20305;-86
2024/04/16 07:40:02;;;;;;;11.20;2.75;;;9.30;83.10;;;;;;5420964;26;20416;-83
2024/04/16 07:42:27;;;;;;;10.50;2.47;;;9.30;82.50;;;;;;5419526;26;20606;-84
2024/04/16 07:44:53;;;;;;;8.73;2.55;;;9.30;82.60;;;;;;5430847;26;20094;-84
2024/04/16 07:47:19;;;;;;;5.90;2.00;;;9.30;82.30;;;;;;5445460;26;20017;-83
2024/04/16 07:49:45;;;;;;;7.35;2.20;;;9.30;82.70;;;;;;5442003;26;20075;-83
2024/04/16 07:52:11;;;;;;;11.63;2.30;;;9.30;83.00;;;;;;5403201;26;20310;-85
2024/04/16 07:54:36;;;;;;;9.43;2.45;;;9.30;83.00;;;;;;5429048;26;19991;-85
2024/04/16 07:57:02;;;;;;;12.27;3.05;;;9.30;83.20;;;;;;5424909;26;20660;-82
2024/04/16 07:59:27;;;;;;;11.45;2.63;;;9.30;83.60;;;;;;5404854;26;19998;-87
2024/04/16 08:01:53;;;;;;;13.15;2.67;;;9.30;83.50;;;;;;5433116;26;20054;-83
2024/04/16 08:04:19;;;;;;;6.38;2.70;;;9.30;84.00;;;;;;5416394;26;20412;-84
2024/04/16 08:06:45;;;;;;;10.93;2.97;;;9.30;83.90;;;;;;5432803;26;20007;-84
2024/04/16 08:09:10;;;;;;;10.35;2.67;;;9.30;83.60;;;;;;5403028;26;20026;-85
2024/04/16 08:11:36;;;;;;;10.27;2.88;;;9.30;83.60;;;;;;5427350;26;19999;-82
2024/04/16 08:14:02;;;;;;;7.75;2.90;;;9.30;83.60;;;;;;5453171;26;20002;-86
2024/04/16 08:16:29;;;;;;;5.35;2.00;;;9.40;83.50;;;;;;5399661;26;19999;-82
2024/04/16 08:18:55;;;;;;;9.15;3.42;;;9.40;83.30;;;;;;5431642;26;20098;-82
2024/04/16 08:21:20;;;;;;;8.32;2.30;;;9.50;83.30;;;;;;5426554;26;20611;-85
2024/04/16 08:23:46;;;;;;;10.40;3.10;;;9.60;83.30;;;;;;5434800;26;20016;-84
2024/04/16 08:26:12;;;;;;;8.27;2.50;;;9.60;83.20;;;;;;5407211;26;20010;-82
2024/04/16 08:28:37;;;;;;;11.38;3.00;;;9.60;82.80;;;;;;5405226;26;20005;-84
2024/04/16 08:31:03;;;;;;;9.07;2.92;;;9.60;82.70;;;;;;5425897;26;20015;-83
2024/04/16 08:33:29;;;;;;;10.63;2.97;;;9.70;82.90;;;;;;5405325;26;20253;-84
2024/04/16 08:35:56;;;;;;;7.43;2.50;;;9.70;82.40;;;;;;5421426;26;19999;-84
2024/04/16 08:38:21;;;;;;;8.43;2.83;;;9.80;82.40;;;;;;5433660;26;20001;-81
2024/04/16 08:40:48;;;;;;;7.97;2.40;;;9.70;82.30;;;;;;5406070;26;20273;-84
2024/04/16 08:43:14;;;;;;;9.95;2.85;;;9.80;82.20;;;;;;5411238;26;19998;-84
2024/04/16 08:45:43;;;;;;;10.68;3.17;;;9.70;82.20;;;;;;5439245;26;20446;-82
2024/04/16 08:48:10;;;;;;;6.93;2.40;;;9.70;82.30;;;;;;5403966;26;20083;-83
2024/04/16 08:50:36;;;;;;;8.77;3.60;;;9.70;82.10;;;;;;5404092;26;20396;-82
2024/04/16 08:53:03;;;;;;;9.63;2.60;;;9.70;82.30;;;;;;5435092;26;19999;-83
2024/04/16 08:55:30;;;;;;;11.02;2.90;;;9.70;82.40;;;;;;5430425;26;20005;-82
2024/04/16 08:57:56;;;;;;;9.13;2.30;;;9.70;82.60;;;;;;5401010;26;20017;-81
2024/04/16 09:00:22;;;;;;;9.18;2.30;;;9.60;82.60;;;;;;5430235;26;19995;-83
2024/04/16 09:02:50;;;;;;;8.25;2.58;;;9.70;83.30;;;;;;5389065;26;19992;-84
2024/04/16 09:05:17;;;;;;;9.82;2.33;;;9.60;83.10;;;;;;5415144;26;20011;-83
2024/04/16 09:07:43;;;;;;;11.27;2.67;;;9.60;82.80;;;;;;5406092;26;19995;-82
2024/04/16 09:10:12;;;;;;;8.63;2.50;;;9.70;83.20;;;;;;5397471;26;20567;-83
2024/04/16 09:12:42;;;;;;;6.75;2.35;;;9.70;83.50;;;;;;5430805;26;20065;-80
2024/04/16 09:15:08;;;;;;;11.30;2.95;;;9.70;83.20;;;;;;5413979;26;20395;-81
2024/04/16 09:17:34;;;;;;;9.10;2.13;;;9.70;83.60;;;;;;5431020;26;19998;-82
2024/04/16 09:20:00;;;;;;;12.60;2.97;;;9.70;83.20;;;;;;5408982;26;20006;-82
2024/04/16 09:22:26;;;;;;;13.02;2.67;;;9.80;82.80;;;;;;5440164;26;20113;-81
2024/04/16 09:24:51;;;;;;;8.52;2.47;;;10.10;82.60;;;;;;5395392;26;19995;-83
2024/04/16 09:27:17;;;;;;;8.63;2.50;;;10.10;81.80;;;;;;5404431;26;19998;-81
2024/04/16 09:29:44;;;;;;;6.45;2.30;;;10.10;82.10;;;;;;5432585;26;20143;-84
2024/04/16 09:32:10;;;;;;;9.52;2.75;;;10.30;82.10;;;;;;5400257;26;19995;-83
2024/04/16 09:34:42;;;;;;;10.10;2.25;;;10.40;81.60;;;;;;5429680;26;20010;-82
2024/04/16 09:37:08;;;;;;;7.60;2.08;;;10.60;81.30;;;;;;5417546;26;20021;-81
2024/04/16 09:39:33;;;;;;;8.27;2.30;;;10.70;81.20;;;;;;5432328;26;19999;-82
2024/04/16 09:42:00;;;;;;;14.02;2.78;;;10.60;80.50;;;;;;5432520;26;19990;-84
2024/04/16 09:44:27;;;;;;;11.82;2.50;;;10.50;81.10;;;;;;5426595;26;20003;-83
2024/04/16 09:46:54;;;;;;;7.60;1.75;;;10.60;81.10;;;;;;5396518;26;20006;-84
2024/04/16 09:49:21;;;;;;;9.13;2.17;;;10.80;81.10;;;;;;5428287;26;20372;-82
2024/04/16 09:51:48;;;;;;;12.02;3.13;;;10.90;80.70;;;;;;5434555;26;20233;-82
2024/04/16 09:54:15;;;;;;;9.93;2.70;;;11.00;80.30;;;;;;5397861;26;20010;-83
2024/04/16 09:56:43;;;;;;;8.32;2.38;;;11.20;79.80;;;;;;5427005;26;20014;-83
2024/04/16 09:59:12;;;;;;;10.30;2.38;;;11.60;78.10;;;;;;5430440;26;20408;-82
2024/04/16 10:01:40;;;;;;;5.15;1.80;;;11.60;77.60;;;;;;5428307;26;20000;-82
2024/04/16 10:04:08;;;;;;;8.88;2.22;;;11.60;77.60;;;;;;5430917;26;20008;-83
2024/04/16 10:06:34;;;;;;;10.75;2.17;;;11.60;78.20;;;;;;5429423;26;19994;-82
2024/04/16 10:09:01;;;;;;;8.55;2.40;;;11.60;77.90;;;;;;5408154;26;19999;-80
2024/04/16 10:11:29;;;;;;;9.60;2.65;;;11.50;77.60;;;;;;5425700;26;19991;-84
2024/04/16 10:13:55;;;;;;;12.48;2.47;;;11.50;77.80;;;;;;5426413;26;20000;-80
2024/04/16 10:16:20;;;;;;;9.13;2.20;;;11.40;78.60;;;;;;5404356;26;20082;-83
2024/04/16 10:18:56;;;;;;;7.95;2.15;;;11.40;78.50;;;;;;5426508;26;20022;-84
2024/04/16 10:21:26;;;;;;;8.55;2.20;;;11.30;76.80;;;;;;5424418;26;20003;-87
2024/04/16 10:24:03;;;;;;;9.18;2.20;;;11.50;77.60;;;;;;5420366;26;20839;-84
2024/04/16 10:26:33;;;;;;;5.97;2.17;;;11.80;77.90;;;;;;5400116;26;20426;-82
2024/04/16 10:28:59;;;;;;;12.00;2.30;;;11.60;77.80;;;;;;5425839;26;20026;-83
2024/04/16 10:31:38;;;;;;;7.32;2.30;;;11.50;78.60;;;;;;5430095;26;20118;-83
2024/04/16 10:34:04;;;;;;;7.72;2.10;;;11.70;78.90;;;;;;5420525;26;20011;-82
2024/04/16 10:36:30;;;;;;;8.55;2.20;;;11.80;78.00;;;;;;5420463;26;20749;-82
2024/04/16 10:38:56;;;;;;;7.57;2.00;;;11.80;76.80;;;;;;5414969;26;20018;-86
2024/04/16 10:41:28;;;;;;;7.90;2.00;;;11.90;76.10;;;;;;5424828;26;20015;-83
2024/04/16 10:43:55;;;;;;;9.90;2.40;;;12.10;76.20;;;;;;5414790;26;20026;-84
2024/04/16 10:46:23;;;;;;;6.85;2.00;;;12.30;75.40;;;;;;5394288;26;20342;-84
2024/04/16 10:48:50;;;;;;;7.72;2.25;;;12.20;75.60;;;;;;5419769;26;19999;-83
2024/04/16 10:51:16;;;;;;;7.22;2.25;;;11.80;75.20;;;;;;5422236;26;20002;-84
2024/04/16 10:53:42;;;;;;;7.65;2.33;;;11.40;76.60;;;;;;5437429;26;20067;-84
2024/04/16 10:56:09;;;;;;;8.40;2.47;;;11.40;77.30;;;;;;5425847;26;20003;-84
2024/04/16 10:58:35;;;;;;;9.20;3.00;;;11.50;76.90;;;;;;5402175;26;20061;-83
2024/04/16 11:01:01;;;;;;;8.30;1.95;;;11.80;76.20;;;;;;5447876;26;19994;-81
2024/04/16 11:03:32;;;;;;;8.32;2.42;;;11.80;76.10;;;;;;5428307;26;19995;-82
2024/04/16 11:05:57;;;;;;;8.85;3.17;;;11.70;76.20;;;;;;5426073;26;19995;-84
2024/04/16 11:08:23;;;;;;;10.57;2.90;;;11.50;76.70;;;;;;5426038;26;20011;-84
2024/04/16 11:10:52;;;;;;;7.78;3.00;;;11.40;77.30;;;;;;5423490;26;20002;-83
2024/04/16 11:13:18;;;;;;;9.20;2.83;;;11.60;77.50;;;;;;5423986;26;20422;-82
2024/04/16 11:15:45;;;;;;;8.77;2.00;;;11.60;76.00;;;;;;5439618;26;20014;-81
2024/04/16 11:18:10;;;;;;;8.05;2.92;;;11.80;75.80;;;;;;5429270;26;20076;-83
2024/04/16 11:20:37;;;;;;;8.00;2.08;;;11.80;76.60;;;;;;5400150;26;20003;-84
2024/04/16 11:23:04;;;;;;;8.05;2.10;;;11.60;74.30;;;;;;5420524;26;20007;-83
2024/04/16 11:25:31;;;;;;;8.52;2.30;;;11.50;75.50;;;;;;5437416;26;20015;-80
2024/04/16 11:27:57;;;;;;;6.72;1.90;;;11.50;75.50;;;;;;5435728;26;20387;-82
2024/04/16 11:30:23;;;;;;;8.55;2.28;;;11.40;76.00;;;;;;5438854;26;19990;-83
2024/04/16 11:32:50;;;;;;;7.38;1.92;;;11.20;77.40;;;;;;5418809;26;20663;-83
2024/04/16 11:35:15;;;;;;;6.85;2.20;;;11.10;78.60;;;;;;5432928;26;19994;-82
2024/04/16 11:37:45;;;;;;;9.50;2.13;;;11.40;79.20;;;;;;5437986;26;20030;-82
2024/04/16 11:40:11;;;;;;;6.57;1.92;;;11.30;77.70;;;;;;5433401;26;20005;-84
2024/04/16 11:42:38;;;;;;;7.55;2.33;;;11.30;77.60;;;;;;5438963;26;19995;-81
2024/04/16 11:45:05;;;;;;;7.53;2.00;;;11.30;77.10;;;;;;5428305;26;19999;-80
2024/04/16 11:47:31;;;;;;;7.57;2.30;;;11.30;76.50;;;;;;5433203;26;20456;-82
2024/04/16 11:49:58;;;;;;;6.90;2.30;;;11.50;76.20;;;;;;5405801;26;20004;-80
2024/04/16 11:52:24;;;;;;;6.15;1.85;;;11.70;75.30;;;;;;5433742;26;20006;-84
2024/04/16 11:54:50;;;;;;;9.18;2.38;;;12.00;75.30;;;;;;5407456;26;19999;-82
2024/04/16 11:57:17;;;;;;;5.55;1.98;;;12.10;75.50;;;;;;5438513;26;20426;-83
2024/04/16 11:59:42;;;;;;;5.80;1.88;;;12.00;75.10;;;;;;5417942;26;20335;-81
2024/04/16 12:02:08;;;;;;;5.20;1.73;;;11.70;75.00;;;;;;5437097;26;19998;-80
2024/04/16 12:04:34;;;;;;;3.90;1.60;;;11.70;74.60;;;;;;5430999;26;20002;-84
2024/04/16 12:06:59;;;;;;;5.95;1.85;;;12.10;74.70;;;;;;5430971;26;20331;-82
2024/04/16 12:09:25;;;;;;;5.72;2.38;;;12.40;73.30;;;;;;5421829;26;20389;-82
2024/04/16 12:11:51;;;;;;;8.90;2.00;;;12.80;73.00;;;;;;5422400;26;20069;-82
2024/04/16 12:14:16;;;;;;;5.57;1.92;;;12.60;72.70;;;;;;5435734;26;19994;-81
2024/04/16 12:16:42;;;;;;;6.15;2.00;;;12.30;73.50;;;;;;5432540;26;20011;-81
2024/04/16 12:19:08;;;;;;;6.97;1.95;;;11.90;75.10;;;;;;5406833;26;19999;-82
2024/04/16 12:21:34;;;;;;;7.43;2.45;;;11.60;77.70;;;;;;5388115;26;20002;-82
2024/04/16 12:23:59;;;;;;;7.85;1.98;;;11.60;78.50;;;;;;5401748;26;20039;-82
2024/04/16 12:26:25;;;;;;;6.13;1.88;;;11.60;78.60;;;;;;5437415;26;19991;-82
2024/04/16 12:28:55;;;;;;;3.97;1.90;;;11.90;78.50;;;;;;5414593;26;20444;-84
2024/04/16 12:31:22;;;;;;;7.72;1.70;;;11.90;78.10;;;;;;5419403;26;20430;-82
2024/04/16 12:33:51;;;;;;;4.97;1.70;;;11.90;78.60;;;;;;5429897;26;20014;-84
2024/04/16 12:36:17;;;;;;;6.43;1.60;;;11.90;77.80;;;;;;5423367;26;20448;-82
2024/04/16 12:38:44;;;;;;;5.82;2.30;;;11.60;77.00;;;;;;5431140;26;19999;-84
2024/04/16 12:41:11;;;;;;;5.25;1.85;;;11.50;78.70;;;;;;5407658;26;20010;-82
2024/04/16 12:43:37;;;;;;;3.83;1.90;;;11.50;78.20;;;;;;5435139;26;20092;-84
2024/04/16 12:46:05;;;;;;;7.63;2.78;;;11.50;79.60;;;;;;5432611;26;20007;-81
2024/04/16 12:48:30;;;;;;;10.65;2.75;;;11.50;79.80;;;;;;5428740;26;20044;-82